createdAt,value
2019-01-29T00:01:23.021Z,4.1
2019-01-29T00:06:45.722Z,4.1
2019-01-29T00:12:08.499Z,4.1
2019-01-29T00:17:31.562Z,4
2019-01-29T00:22:54.458Z,4.3
2019-01-29T00:28:17.919Z,4
2019-01-29T00:33:40.840Z,4.8
2019-01-29T00:39:03.495Z,4.5
2019-01-29T00:44:26.271Z,4.4
2019-01-29T00:49:49.260Z,3.8
2019-01-29T00:55:22.276Z,3.8
2019-01-29T01:00:45.259Z,4.2
2019-01-29T01:06:07.933Z,4.5
2019-01-29T01:11:30.923Z,4.3
2019-01-29T01:16:53.662Z,3.7
2019-01-29T01:22:16.466Z,4.5
2019-01-29T01:27:39.269Z,4.2
2019-01-29T01:33:02.155Z,4.5
2019-01-29T01:38:25.063Z,4
2019-01-29T01:43:58.313Z,4
2019-01-29T01:49:21.333Z,4.4
2019-01-29T01:54:44.082Z,4.4
2019-01-29T02:00:06.987Z,4.7
2019-01-29T02:05:29.764Z,4.5
2019-01-29T02:11:02.574Z,6
2019-01-29T02:16:25.238Z,5.3
2019-01-29T02:21:58.723Z,6.7
2019-01-29T02:27:21.507Z,7.6
2019-01-29T02:32:44.903Z,7.3
2019-01-29T02:38:08.262Z,7.4
2019-01-29T02:43:31.084Z,5.7
2019-01-29T02:48:54.098Z,7
2019-01-29T02:54:19.014Z,7.8
2019-01-29T02:59:41.719Z,7
2019-01-29T03:05:04.730Z,6.5
2019-01-29T03:10:27.558Z,6
2019-01-29T03:15:51.665Z,5.4
2019-01-29T03:21:14.332Z,5.6
2019-01-29T03:26:38.070Z,5.1
2019-01-29T03:32:00.832Z,5.1
2019-01-29T03:37:23.641Z,4.6
2019-01-29T03:42:46.312Z,4.9
2019-01-29T03:48:08.949Z,4.8
2019-01-29T03:53:38.032Z,5.4
2019-01-29T03:58:57.434Z,6.1
2019-01-29T04:04:20.902Z,5
2019-01-29T04:09:43.734Z,5.9
2019-01-29T04:15:06.684Z,6.6
2019-01-29T04:20:29.381Z,6.3
2019-01-29T04:25:54.205Z,6.3
2019-01-29T04:31:16.981Z,6.2
2019-01-29T04:36:50.028Z,5.4
2019-01-29T04:42:12.738Z,5.3
2019-01-29T04:47:35.438Z,5.5
2019-01-29T04:52:58.149Z,5.3
2019-01-29T04:58:29.001Z,5.1
2019-01-29T05:03:51.995Z,4.5
2019-01-29T05:09:25.836Z,5.5
2019-01-29T05:14:57.921Z,6
2019-01-29T05:20:21.541Z,6.6
2019-01-29T05:25:44.241Z,7.2
2019-01-29T05:31:16.177Z,7.2
2019-01-29T05:36:38.971Z,7.8
2019-01-29T05:42:01.794Z,8.8
2019-01-29T05:47:33.583Z,7.5
2019-01-29T05:52:56.482Z,7.9
2019-01-29T05:58:19.355Z,9
2019-01-29T06:03:42.018Z,8.6
2019-01-29T06:09:04.925Z,9.7
2019-01-29T06:14:27.660Z,9.8
2019-01-29T06:19:50.727Z,10.1
2019-01-29T06:25:14.455Z,9.9
2019-01-29T06:30:37.123Z,9.8
2019-01-29T06:35:59.905Z,11.6
2019-01-29T06:41:22.789Z,11.9
2019-01-29T06:46:45.633Z,13.7
2019-01-29T06:52:08.420Z,14.2
2019-01-29T06:57:31.163Z,14.4
2019-01-29T07:02:53.978Z,15
2019-01-29T07:08:25.644Z,13
2019-01-29T07:13:57.971Z,15.4
2019-01-29T07:19:29.791Z,14.7
2019-01-29T07:25:02.382Z,13.7
2019-01-29T07:30:25.104Z,15.1
2019-01-29T07:35:48.213Z,15.8
2019-01-29T07:41:11.208Z,15.2
2019-01-29T07:46:34.064Z,16.700001
2019-01-29T07:52:06.937Z,15.6
2019-01-29T07:57:30.000Z,16.6
2019-01-29T08:02:52.749Z,17.700001
2019-01-29T08:08:15.469Z,17.799999
2019-01-29T08:13:38.419Z,20.6
2019-01-29T08:19:01.307Z,20.6
2019-01-29T08:24:24.085Z,21.1
2019-01-29T08:29:46.831Z,21.4
2019-01-29T08:35:09.644Z,20.1
2019-01-29T08:40:32.462Z,20.9
2019-01-29T08:45:55.324Z,21.700001
2019-01-29T08:51:27.389Z,21.6
2019-01-29T08:56:50.117Z,21.4
2019-01-29T09:02:13.053Z,22
2019-01-29T09:07:35.847Z,20.700001
2019-01-29T09:12:58.633Z,21.299999
2019-01-29T09:18:31.620Z,21.6
2019-01-29T09:23:54.772Z,21.799999
2019-01-29T09:29:27.197Z,20.9
2019-01-29T09:34:49.863Z,19.200001
2019-01-29T09:40:12.854Z,18.5
2019-01-29T09:45:35.818Z,17.4
2019-01-29T09:50:58.541Z,17.5
2019-01-29T09:56:30.659Z,16.4
2019-01-29T10:01:53.480Z,17
2019-01-29T10:07:16.550Z,17.700001
2019-01-29T10:12:39.323Z,16.6
2019-01-29T10:18:12.178Z,16.9
2019-01-29T10:23:35.348Z,16.5
2019-01-29T10:28:58.125Z,16.9
2019-01-29T10:34:21.217Z,16
2019-01-29T10:39:44.184Z,15.8
2019-01-29T10:45:16.575Z,15.9
2019-01-29T10:50:39.386Z,15
2019-01-29T10:56:02.187Z,16.1
2019-01-29T11:01:24.944Z,15.5
2019-01-29T11:06:47.641Z,16.200001
2019-01-29T11:12:10.527Z,16.6
2019-01-29T11:17:33.310Z,16.5
2019-01-29T11:22:56.322Z,16.1
2019-01-29T11:28:20.168Z,16
2019-01-29T11:33:43.148Z,16.799999
2019-01-29T11:39:05.834Z,16.299999
2019-01-29T11:44:28.683Z,17
2019-01-29T11:49:51.610Z,16.1
2019-01-29T11:55:14.365Z,16.6
2019-01-29T12:00:37.144Z,16.9
2019-01-29T12:06:00.034Z,17.4
2019-01-29T12:11:33.102Z,18.299999
2019-01-29T12:17:04.869Z,17.5
2019-01-29T12:22:28.136Z,20.4
2019-01-29T12:28:02.582Z,19.299999
2019-01-29T12:33:33.275Z,20.200001
2019-01-29T12:38:56.503Z,20.799999
2019-01-29T12:44:19.273Z,22
2019-01-29T12:49:51.673Z,20.799999
2019-01-29T12:55:14.731Z,22.9
2019-01-29T13:00:40.185Z,20
2019-01-29T13:06:02.293Z,20.5
2019-01-29T13:11:25.048Z,19.700001
2019-01-29T13:16:47.829Z,19.4
2019-01-29T13:22:10.577Z,19
2019-01-29T13:27:34.552Z,17.5
2019-01-29T13:32:58.822Z,15.7
2019-01-29T13:38:21.637Z,16.4
2019-01-29T13:43:44.473Z,16.5
2019-01-29T13:49:07.172Z,16.5
2019-01-29T13:54:30.174Z,14.5
2019-01-29T13:59:53.666Z,15.9
2019-01-29T14:05:16.381Z,17
2019-01-29T14:10:39.803Z,14.1
2019-01-29T14:16:02.582Z,13.3
2019-01-29T14:21:25.799Z,16
2019-01-29T14:26:48.477Z,15.4
2019-01-29T14:32:11.962Z,14.9
2019-01-29T14:37:35.144Z,14.9
2019-01-29T14:42:57.834Z,15
2019-01-29T14:48:20.624Z,15.5
2019-01-29T14:53:52.800Z,15.9
2019-01-29T14:59:16.360Z,16.5
2019-01-29T15:04:39.220Z,16.9
2019-01-29T15:10:03.218Z,16.5
2019-01-29T15:15:25.953Z,16.299999
2019-01-29T15:20:49.458Z,15
2019-01-29T15:26:21.504Z,14.4
2019-01-29T15:31:53.370Z,14.4
2019-01-29T15:37:25.325Z,14.3
2019-01-29T15:43:24.658Z,15.1
2019-01-29T15:48:56.627Z,18.200001
2019-01-29T15:54:28.602Z,19.9
2019-01-29T16:00:00.998Z,21.299999
2019-01-29T16:05:34.457Z,16.5
2019-01-29T16:11:33.729Z,16.9
2019-01-29T16:17:06.652Z,13.2
2019-01-29T16:23:58.937Z,13.3
2019-01-29T16:29:22.331Z,10.9
2019-01-29T16:34:45.402Z,10.5
2019-01-29T16:40:17.157Z,10.9
2019-01-29T16:45:50.288Z,11.2
2019-01-29T16:51:23.044Z,13
2019-01-29T16:56:45.916Z,13
2019-01-29T17:02:08.856Z,13.2
2019-01-29T17:07:31.696Z,14.3
2019-01-29T17:12:54.797Z,14.9
2019-01-29T17:18:26.461Z,14.3
2019-01-29T17:25:17.211Z,14.7
2019-01-29T17:30:48.819Z,15
2019-01-29T17:36:11.565Z,15
2019-01-29T17:41:44.246Z,14.6
2019-01-29T17:47:16.351Z,13.7
2019-01-29T17:52:39.047Z,12.6
2019-01-29T17:58:01.829Z,11.4
2019-01-29T18:03:24.516Z,10.7
2019-01-29T18:08:49.778Z,10.4
2019-01-29T18:14:11.455Z,10.5
2019-01-29T18:19:35.009Z,9.4
2019-01-29T18:24:57.736Z,9
2019-01-29T18:30:21.302Z,9
2019-01-29T18:35:44.447Z,8.1
2019-01-29T18:41:07.258Z,8.2
2019-01-29T18:46:29.910Z,8.1
2019-01-29T18:51:53.097Z,7.8
2019-01-29T18:57:15.846Z,8.2
2019-01-29T19:02:38.672Z,8
2019-01-29T19:08:01.491Z,8.1
2019-01-29T19:13:25.462Z,8
2019-01-29T19:18:48.324Z,7.7
2019-01-29T19:24:11.087Z,8.2
2019-01-29T19:29:43.580Z,8.3
2019-01-29T19:35:06.910Z,8.2
2019-01-29T19:40:29.599Z,8.2
2019-01-29T19:46:02.357Z,8.1
2019-01-29T19:51:35.603Z,8.3
2019-01-29T19:56:59.132Z,9.3
2019-01-29T20:02:21.790Z,8.4
2019-01-29T20:07:44.750Z,10
2019-01-29T20:13:16.982Z,9.7
2019-01-29T20:18:49.253Z,9.7
2019-01-29T20:24:12.505Z,9.3
2019-01-29T20:29:35.302Z,9.3
2019-01-29T20:34:57.994Z,11.5
2019-01-29T20:40:22.076Z,8.1
2019-01-29T20:45:45.257Z,8.2
2019-01-29T20:51:08.121Z,8.8
2019-01-29T20:56:30.803Z,8.1
2019-01-29T21:01:53.800Z,8.2
2019-01-29T21:07:16.471Z,8.1
2019-01-29T21:12:39.521Z,8.6
2019-01-29T21:18:02.565Z,7.8
2019-01-29T21:23:25.769Z,8.1
2019-01-29T21:28:48.647Z,7.7
2019-01-29T21:34:11.640Z,8.2
2019-01-29T21:39:34.242Z,7.5
2019-01-29T21:44:57.232Z,7.5
2019-01-29T21:50:20.141Z,7.8
2019-01-29T21:55:43.834Z,7.4
2019-01-29T22:01:06.504Z,7.2
2019-01-29T22:06:29.265Z,7.9
2019-01-29T22:11:52.394Z,6.8
2019-01-29T22:17:15.164Z,7.1
2019-01-29T22:22:47.520Z,6.8
2019-01-29T22:28:10.873Z,6.6
2019-01-29T22:33:42.882Z,6.7
2019-01-29T22:39:05.754Z,6.8
2019-01-29T22:44:28.522Z,7
2019-01-29T22:49:51.208Z,7.4
2019-01-29T22:55:14.008Z,7.6
2019-01-29T23:00:37.000Z,8
2019-01-29T23:05:59.728Z,8.2
2019-01-29T23:11:23.361Z,8.2
2019-01-29T23:16:46.455Z,8.8
2019-01-29T23:22:19.139Z,9.5
2019-01-29T23:27:41.783Z,9.8
2019-01-29T23:33:04.993Z,10.4
2019-01-29T23:38:27.715Z,12.6
2019-01-29T23:43:50.533Z,12.1
2019-01-29T23:49:13.443Z,14.6
2019-01-29T23:54:36.562Z,12.4
2019-01-29T23:59:59.255Z,13.1
